sensor_id;sensor_type;location;lat;lon;timestamp;P1;durP1;ratioP1;P2;durP2;ratioP2
61250;SDS011;47126;47.508;8.590;2023-11-22T00:01:24;9.45;;;5.07;;
61250;SDS011;47126;47.508;8.590;2023-11-22T00:03:51;12.27;;;4.90;;
61250;SDS011;47126;47.508;8.590;2023-11-22T00:06:17;10.90;;;5.80;;
61250;SDS011;47126;47.508;8.590;2023-11-22T00:08:45;9.68;;;5.30;;
61250;SDS011;47126;47.508;8.590;2023-11-22T00:11:11;10.43;;;5.15;;
61250;SDS011;47126;47.508;8.590;2023-11-22T00:13:38;12.88;;;5.70;;
61250;SDS011;47126;47.508;8.590;2023-11-22T00:16:04;12.77;;;5.70;;
61250;SDS011;47126;47.508;8.590;2023-11-22T00:18:33;9.18;;;5.53;;
61250;SDS011;47126;47.508;8.590;2023-11-22T00:20:59;12.93;;;7.05;;
61250;SDS011;47126;47.508;8.590;2023-11-22T00:23:25;13.48;;;7.50;;
61250;SDS011;47126;47.508;8.590;2023-11-22T00:25:54;15.27;;;7.63;;
61250;SDS011;47126;47.508;8.590;2023-11-22T00:28:22;15.10;;;8.05;;
61250;SDS011;47126;47.508;8.590;2023-11-22T00:30:48;10.63;;;6.85;;
61250;SDS011;47126;47.508;8.590;2023-11-22T00:33:14;13.07;;;7.40;;
61250;SDS011;47126;47.508;8.590;2023-11-22T00:35:40;13.60;;;7.53;;
61250;SDS011;47126;47.508;8.590;2023-11-22T00:38:06;12.85;;;7.68;;
61250;SDS011;47126;47.508;8.590;2023-11-22T00:40:32;13.18;;;6.80;;
61250;SDS011;47126;47.508;8.590;2023-11-22T00:42:58;12.13;;;6.32;;
61250;SDS011;47126;47.508;8.590;2023-11-22T00:45:24;11.38;;;6.65;;
61250;SDS011;47126;47.508;8.590;2023-11-22T00:47:50;11.73;;;6.47;;
61250;SDS011;47126;47.508;8.590;2023-11-22T00:50:16;15.98;;;6.75;;
61250;SDS011;47126;47.508;8.590;2023-11-22T00:52:45;12.45;;;6.68;;
61250;SDS011;47126;47.508;8.590;2023-11-22T00:55:11;12.05;;;5.80;;
61250;SDS011;47126;47.508;8.590;2023-11-22T00:57:37;10.88;;;6.00;;
61250;SDS011;47126;47.508;8.590;2023-11-22T01:00:04;12.52;;;5.97;;
61250;SDS011;47126;47.508;8.590;2023-11-22T01:02:30;10.93;;;5.40;;
61250;SDS011;47126;47.508;8.590;2023-11-22T01:04:56;11.07;;;5.50;;
61250;SDS011;47126;47.508;8.590;2023-11-22T01:07:22;12.05;;;5.72;;
61250;SDS011;47126;47.508;8.590;2023-11-22T01:09:48;10.23;;;5.38;;
61250;SDS011;47126;47.508;8.590;2023-11-22T01:12:14;11.65;;;5.18;;
61250;SDS011;47126;47.508;8.590;2023-11-22T01:14:40;10.82;;;4.95;;
61250;SDS011;47126;47.508;8.590;2023-11-22T01:17:06;9.82;;;4.90;;
61250;SDS011;47126;47.508;8.590;2023-11-22T01:19:32;10.63;;;5.53;;
61250;SDS011;47126;47.508;8.590;2023-11-22T01:21:58;9.68;;;5.03;;
61250;SDS011;47126;47.508;8.590;2023-11-22T01:24:23;9.50;;;5.22;;
61250;SDS011;47126;47.508;8.590;2023-11-22T01:26:51;15.80;;;5.70;;
61250;SDS011;47126;47.508;8.590;2023-11-22T01:29:17;8.80;;;4.93;;
61250;SDS011;47126;47.508;8.590;2023-11-22T01:31:43;10.43;;;5.75;;
61250;SDS011;47126;47.508;8.590;2023-11-22T01:34:09;14.85;;;6.05;;
61250;SDS011;47126;47.508;8.590;2023-11-22T01:36:34;11.65;;;5.93;;
61250;SDS011;47126;47.508;8.590;2023-11-22T01:39:01;9.77;;;5.70;;
61250;SDS011;47126;47.508;8.590;2023-11-22T01:41:27;9.85;;;5.70;;
61250;SDS011;47126;47.508;8.590;2023-11-22T01:43:55;13.57;;;6.38;;
61250;SDS011;47126;47.508;8.590;2023-11-22T01:46:24;12.23;;;5.65;;
61250;SDS011;47126;47.508;8.590;2023-11-22T01:48:51;13.07;;;5.95;;
61250;SDS011;47126;47.508;8.590;2023-11-22T01:51:20;10.88;;;5.55;;
61250;SDS011;47126;47.508;8.590;2023-11-22T01:53:47;12.52;;;5.50;;
61250;SDS011;47126;47.508;8.590;2023-11-22T01:56:13;10.40;;;5.63;;
61250;SDS011;47126;47.508;8.590;2023-11-22T01:58:39;10.60;;;5.35;;
61250;SDS011;47126;47.508;8.590;2023-11-22T02:01:05;10.65;;;5.35;;
61250;SDS011;47126;47.508;8.590;2023-11-22T02:03:32;10.43;;;5.07;;
61250;SDS011;47126;47.508;8.590;2023-11-22T02:05:58;11.00;;;5.45;;
61250;SDS011;47126;47.508;8.590;2023-11-22T02:08:25;11.75;;;6.07;;
61250;SDS011;47126;47.508;8.590;2023-11-22T02:11:00;10.82;;;5.50;;
61250;SDS011;47126;47.508;8.590;2023-11-22T02:13:28;12.77;;;5.53;;
61250;SDS011;47126;47.508;8.590;2023-11-22T02:15:54;11.25;;;5.90;;
61250;SDS011;47126;47.508;8.590;2023-11-22T02:18:21;10.52;;;5.90;;
61250;SDS011;47126;47.508;8.590;2023-11-22T02:20:48;10.77;;;5.93;;
61250;SDS011;47126;47.508;8.590;2023-11-22T02:23:14;11.02;;;5.43;;
61250;SDS011;47126;47.508;8.590;2023-11-22T02:25:40;10.70;;;6.22;;
61250;SDS011;47126;47.508;8.590;2023-11-22T02:28:06;12.27;;;6.07;;
61250;SDS011;47126;47.508;8.590;2023-11-22T02:30:33;14.45;;;6.03;;
61250;SDS011;47126;47.508;8.590;2023-11-22T02:32:59;16.20;;;6.95;;
61250;SDS011;47126;47.508;8.590;2023-11-22T02:35:25;15.38;;;7.57;;
61250;SDS011;47126;47.508;8.590;2023-11-22T02:37:56;12.63;;;6.88;;
61250;SDS011;47126;47.508;8.590;2023-11-22T02:40:22;10.82;;;6.28;;
61250;SDS011;47126;47.508;8.590;2023-11-22T02:42:49;13.23;;;5.88;;
61250;SDS011;47126;47.508;8.590;2023-11-22T02:45:16;14.52;;;7.40;;
61250;SDS011;47126;47.508;8.590;2023-11-22T02:47:43;12.35;;;6.80;;
61250;SDS011;47126;47.508;8.590;2023-11-22T02:50:12;13.93;;;7.32;;
61250;SDS011;47126;47.508;8.590;2023-11-22T02:52:38;15.48;;;6.93;;
61250;SDS011;47126;47.508;8.590;2023-11-22T02:55:04;15.98;;;7.32;;
61250;SDS011;47126;47.508;8.590;2023-11-22T02:57:30;13.93;;;6.90;;
61250;SDS011;47126;47.508;8.590;2023-11-22T02:59:57;14.45;;;6.95;;
61250;SDS011;47126;47.508;8.590;2023-11-22T03:02:23;12.55;;;6.82;;
61250;SDS011;47126;47.508;8.590;2023-11-22T03:04:52;13.45;;;7.03;;
61250;SDS011;47126;47.508;8.590;2023-11-22T03:07:18;11.88;;;6.47;;
61250;SDS011;47126;47.508;8.590;2023-11-22T03:09:45;13.27;;;6.85;;
61250;SDS011;47126;47.508;8.590;2023-11-22T03:12:11;18.08;;;7.30;;
61250;SDS011;47126;47.508;8.590;2023-11-22T03:14:38;13.30;;;6.40;;
61250;SDS011;47126;47.508;8.590;2023-11-22T03:17:04;12.18;;;6.00;;
61250;SDS011;47126;47.508;8.590;2023-11-22T03:19:30;12.65;;;6.03;;
61250;SDS011;47126;47.508;8.590;2023-11-22T03:21:59;13.15;;;6.55;;
61250;SDS011;47126;47.508;8.590;2023-11-22T03:24:25;12.18;;;6.68;;
61250;SDS011;47126;47.508;8.590;2023-11-22T03:26:51;14.95;;;6.93;;
61250;SDS011;47126;47.508;8.590;2023-11-22T03:29:18;14.60;;;7.30;;
61250;SDS011;47126;47.508;8.590;2023-11-22T03:31:44;14.93;;;7.13;;
61250;SDS011;47126;47.508;8.590;2023-11-22T03:34:11;16.45;;;6.43;;
61250;SDS011;47126;47.508;8.590;2023-11-22T03:36:39;14.65;;;6.80;;
61250;SDS011;47126;47.508;8.590;2023-11-22T03:39:05;16.80;;;7.13;;
61250;SDS011;47126;47.508;8.590;2023-11-22T03:41:31;15.15;;;7.25;;
61250;SDS011;47126;47.508;8.590;2023-11-22T03:43:57;14.70;;;6.90;;
61250;SDS011;47126;47.508;8.590;2023-11-22T03:46:23;14.40;;;7.00;;
61250;SDS011;47126;47.508;8.590;2023-11-22T03:48:49;18.60;;;9.68;;
61250;SDS011;47126;47.508;8.590;2023-11-22T03:51:15;14.35;;;8.27;;
61250;SDS011;47126;47.508;8.590;2023-11-22T03:53:41;17.95;;;7.63;;
61250;SDS011;47126;47.508;8.590;2023-11-22T03:56:07;15.75;;;7.97;;
61250;SDS011;47126;47.508;8.590;2023-11-22T03:58:33;14.57;;;7.25;;
61250;SDS011;47126;47.508;8.590;2023-11-22T04:00:59;16.13;;;7.25;;
61250;SDS011;47126;47.508;8.590;2023-11-22T04:03:27;12.80;;;6.75;;
61250;SDS011;47126;47.508;8.590;2023-11-22T04:05:53;14.20;;;7.15;;
61250;SDS011;47126;47.508;8.590;2023-11-22T04:08:19;15.05;;;7.20;;
61250;SDS011;47126;47.508;8.590;2023-11-22T04:10:45;14.23;;;7.05;;
61250;SDS011;47126;47.508;8.590;2023-11-22T04:13:12;13.52;;;7.43;;
61250;SDS011;47126;47.508;8.590;2023-11-22T04:15:38;14.23;;;7.90;;
61250;SDS011;47126;47.508;8.590;2023-11-22T04:18:05;16.88;;;8.00;;
61250;SDS011;47126;47.508;8.590;2023-11-22T04:20:31;14.20;;;7.50;;
61250;SDS011;47126;47.508;8.590;2023-11-22T04:22:57;14.52;;;7.75;;
61250;SDS011;47126;47.508;8.590;2023-11-22T04:25:23;19.95;;;6.93;;
61250;SDS011;47126;47.508;8.590;2023-11-22T04:27:49;15.07;;;7.15;;
61250;SDS011;47126;47.508;8.590;2023-11-22T04:30:15;15.27;;;6.68;;
61250;SDS011;47126;47.508;8.590;2023-11-22T04:32:42;14.43;;;7.00;;
61250;SDS011;47126;47.508;8.590;2023-11-22T04:35:08;16.15;;;6.72;;
61250;SDS011;47126;47.508;8.590;2023-11-22T04:37:35;15.35;;;7.90;;
61250;SDS011;47126;47.508;8.590;2023-11-22T04:40:01;14.52;;;6.72;;
61250;SDS011;47126;47.508;8.590;2023-11-22T04:42:28;15.10;;;7.07;;
61250;SDS011;47126;47.508;8.590;2023-11-22T04:44:54;12.77;;;7.03;;
61250;SDS011;47126;47.508;8.590;2023-11-22T04:47:20;14.70;;;7.30;;
61250;SDS011;47126;47.508;8.590;2023-11-22T04:49:47;16.98;;;8.13;;
61250;SDS011;47126;47.508;8.590;2023-11-22T04:52:13;16.08;;;8.10;;
61250;SDS011;47126;47.508;8.590;2023-11-22T04:54:39;14.43;;;7.57;;
61250;SDS011;47126;47.508;8.590;2023-11-22T04:57:05;14.93;;;7.45;;
61250;SDS011;47126;47.508;8.590;2023-11-22T04:59:31;17.00;;;8.98;;
61250;SDS011;47126;47.508;8.590;2023-11-22T05:01:58;12.85;;;7.57;;
61250;SDS011;47126;47.508;8.590;2023-11-22T05:04:23;15.35;;;7.60;;
61250;SDS011;47126;47.508;8.590;2023-11-22T05:06:51;13.77;;;7.78;;
61250;SDS011;47126;47.508;8.590;2023-11-22T05:09:17;18.08;;;7.90;;
61250;SDS011;47126;47.508;8.590;2023-11-22T05:11:43;17.30;;;7.50;;
61250;SDS011;47126;47.508;8.590;2023-11-22T05:14:10;16.50;;;7.95;;
61250;SDS011;47126;47.508;8.590;2023-11-22T05:16:36;21.10;;;8.18;;
61250;SDS011;47126;47.508;8.590;2023-11-22T05:19:02;16.83;;;8.20;;
61250;SDS011;47126;47.508;8.590;2023-11-22T05:21:28;15.02;;;7.80;;
61250;SDS011;47126;47.508;8.590;2023-11-22T05:23:54;17.05;;;8.93;;
61250;SDS011;47126;47.508;8.590;2023-11-22T05:26:20;15.90;;;8.23;;
61250;SDS011;47126;47.508;8.590;2023-11-22T05:28:49;14.82;;;7.70;;
61250;SDS011;47126;47.508;8.590;2023-11-22T05:31:18;17.48;;;7.32;;
61250;SDS011;47126;47.508;8.590;2023-11-22T05:33:45;14.00;;;7.88;;
61250;SDS011;47126;47.508;8.590;2023-11-22T05:36:11;13.45;;;7.20;;
61250;SDS011;47126;47.508;8.590;2023-11-22T05:38:37;17.75;;;7.32;;
61250;SDS011;47126;47.508;8.590;2023-11-22T05:41:03;14.88;;;7.35;;
61250;SDS011;47126;47.508;8.590;2023-11-22T05:43:29;15.00;;;8.00;;
61250;SDS011;47126;47.508;8.590;2023-11-22T05:45:55;16.83;;;8.88;;
61250;SDS011;47126;47.508;8.590;2023-11-22T05:48:21;14.65;;;8.23;;
61250;SDS011;47126;47.508;8.590;2023-11-22T05:50:48;19.73;;;9.48;;
61250;SDS011;47126;47.508;8.590;2023-11-22T05:53:14;18.88;;;9.13;;
61250;SDS011;47126;47.508;8.590;2023-11-22T05:55:47;19.50;;;9.00;;
61250;SDS011;47126;47.508;8.590;2023-11-22T05:58:14;18.00;;;8.93;;
61250;SDS011;47126;47.508;8.590;2023-11-22T06:00:42;16.60;;;8.65;;
61250;SDS011;47126;47.508;8.590;2023-11-22T06:03:08;17.90;;;8.95;;
61250;SDS011;47126;47.508;8.590;2023-11-22T06:05:34;20.90;;;8.63;;
61250;SDS011;47126;47.508;8.590;2023-11-22T06:08:00;18.50;;;9.50;;
61250;SDS011;47126;47.508;8.590;2023-11-22T06:10:26;17.60;;;8.93;;
61250;SDS011;47126;47.508;8.590;2023-11-22T06:12:52;21.55;;;10.35;;
61250;SDS011;47126;47.508;8.590;2023-11-22T06:15:18;21.08;;;9.60;;
61250;SDS011;47126;47.508;8.590;2023-11-22T06:17:46;20.75;;;9.90;;
61250;SDS011;47126;47.508;8.590;2023-11-22T06:20:13;21.25;;;9.68;;
61250;SDS011;47126;47.508;8.590;2023-11-22T06:22:39;17.30;;;8.93;;
61250;SDS011;47126;47.508;8.590;2023-11-22T06:25:10;20.13;;;10.23;;
61250;SDS011;47126;47.508;8.590;2023-11-22T06:27:37;15.10;;;7.40;;
61250;SDS011;47126;47.508;8.590;2023-11-22T06:30:03;10.27;;;5.55;;
61250;SDS011;47126;47.508;8.590;2023-11-22T06:32:31;9.70;;;4.72;;
61250;SDS011;47126;47.508;8.590;2023-11-22T06:38:05;8.35;;;3.78;;
61250;SDS011;47126;47.508;8.590;2023-11-22T06:40:34;6.95;;;3.75;;
61250;SDS011;47126;47.508;8.590;2023-11-22T06:43:03;4.93;;;2.85;;
61250;SDS011;47126;47.508;8.590;2023-11-22T06:45:32;4.40;;;2.40;;
61250;SDS011;47126;47.508;8.590;2023-11-22T06:48:01;3.55;;;1.95;;
61250;SDS011;47126;47.508;8.590;2023-11-22T06:50:30;2.30;;;1.80;;
61250;SDS011;47126;47.508;8.590;2023-11-22T06:52:56;3.90;;;2.10;;
61250;SDS011;47126;47.508;8.590;2023-11-22T06:55:22;3.85;;;2.30;;
61250;SDS011;47126;47.508;8.590;2023-11-22T06:57:48;3.97;;;2.40;;
61250;SDS011;47126;47.508;8.590;2023-11-22T07:00:21;2.97;;;2.08;;
61250;SDS011;47126;47.508;8.590;2023-11-22T07:02:47;3.00;;;2.08;;
61250;SDS011;47126;47.508;8.590;2023-11-22T07:05:13;3.00;;;2.20;;
61250;SDS011;47126;47.508;8.590;2023-11-22T07:07:39;6.13;;;2.63;;
61250;SDS011;47126;47.508;8.590;2023-11-22T07:10:09;6.32;;;2.67;;
61250;SDS011;47126;47.508;8.590;2023-11-22T07:12:36;4.70;;;2.65;;
61250;SDS011;47126;47.508;8.590;2023-11-22T07:15:08;5.32;;;3.05;;
61250;SDS011;47126;47.508;8.590;2023-11-22T07:17:34;4.20;;;2.70;;
61250;SDS011;47126;47.508;8.590;2023-11-22T07:20:01;4.70;;;2.58;;
61250;SDS011;47126;47.508;8.590;2023-11-22T07:22:27;4.53;;;2.58;;
61250;SDS011;47126;47.508;8.590;2023-11-22T07:24:55;4.85;;;2.47;;
61250;SDS011;47126;47.508;8.590;2023-11-22T07:27:25;4.38;;;2.58;;
61250;SDS011;47126;47.508;8.590;2023-11-22T07:29:51;4.20;;;2.60;;
61250;SDS011;47126;47.508;8.590;2023-11-22T07:32:17;4.57;;;2.60;;
61250;SDS011;47126;47.508;8.590;2023-11-22T07:34:45;5.38;;;2.90;;
61250;SDS011;47126;47.508;8.590;2023-11-22T07:37:11;3.95;;;2.30;;
61250;SDS011;47126;47.508;8.590;2023-11-22T07:39:38;3.60;;;2.20;;
61250;SDS011;47126;47.508;8.590;2023-11-22T07:42:05;4.43;;;2.65;;
61250;SDS011;47126;47.508;8.590;2023-11-22T07:44:34;21.55;;;12.73;;
61250;SDS011;47126;47.508;8.590;2023-11-22T07:47:02;3.85;;;2.28;;
61250;SDS011;47126;47.508;8.590;2023-11-22T07:49:33;4.07;;;2.40;;
61250;SDS011;47126;47.508;8.590;2023-11-22T07:52:03;3.13;;;1.90;;
61250;SDS011;47126;47.508;8.590;2023-11-22T07:54:29;3.60;;;2.00;;
61250;SDS011;47126;47.508;8.590;2023-11-22T07:56:55;4.18;;;2.30;;
61250;SDS011;47126;47.508;8.590;2023-11-22T07:59:21;3.35;;;2.10;;
61250;SDS011;47126;47.508;8.590;2023-11-22T08:01:48;3.40;;;1.90;;
61250;SDS011;47126;47.508;8.590;2023-11-22T08:04:14;3.85;;;2.22;;
61250;SDS011;47126;47.508;8.590;2023-11-22T08:06:41;3.58;;;2.00;;
61250;SDS011;47126;47.508;8.590;2023-11-22T08:09:08;3.58;;;2.22;;
61250;SDS011;47126;47.508;8.590;2023-11-22T08:11:34;3.28;;;1.92;;
61250;SDS011;47126;47.508;8.590;2023-11-22T08:14:00;4.75;;;2.53;;
61250;SDS011;47126;47.508;8.590;2023-11-22T08:16:26;3.25;;;2.15;;
61250;SDS011;47126;47.508;8.590;2023-11-22T08:18:52;5.82;;;2.35;;
61250;SDS011;47126;47.508;8.590;2023-11-22T08:21:18;3.53;;;2.17;;
61250;SDS011;47126;47.508;8.590;2023-11-22T08:23:48;4.05;;;2.30;;
61250;SDS011;47126;47.508;8.590;2023-11-22T08:26:14;3.33;;;2.00;;
61250;SDS011;47126;47.508;8.590;2023-11-22T08:28:40;4.97;;;2.55;;
61250;SDS011;47126;47.508;8.590;2023-11-22T08:31:06;4.85;;;1.80;;
61250;SDS011;47126;47.508;8.590;2023-11-22T08:33:36;4.25;;;2.10;;
61250;SDS011;47126;47.508;8.590;2023-11-22T08:36:02;5.80;;;2.60;;
61250;SDS011;47126;47.508;8.590;2023-11-22T08:38:29;4.57;;;2.55;;
61250;SDS011;47126;47.508;8.590;2023-11-22T08:41:02;3.72;;;1.88;;
61250;SDS011;47126;47.508;8.590;2023-11-22T08:43:28;2.40;;;1.42;;
61250;SDS011;47126;47.508;8.590;2023-11-22T08:45:54;2.80;;;2.00;;
61250;SDS011;47126;47.508;8.590;2023-11-22T08:48:20;2.78;;;1.80;;
61250;SDS011;47126;47.508;8.590;2023-11-22T08:50:46;2.25;;;1.60;;
61250;SDS011;47126;47.508;8.590;2023-11-22T08:53:13;3.15;;;1.77;;
61250;SDS011;47126;47.508;8.590;2023-11-22T08:55:40;2.97;;;1.80;;
61250;SDS011;47126;47.508;8.590;2023-11-22T08:58:09;4.07;;;2.13;;
61250;SDS011;47126;47.508;8.590;2023-11-22T09:00:35;3.17;;;1.92;;
61250;SDS011;47126;47.508;8.590;2023-11-22T09:03:02;2.53;;;1.60;;
61250;SDS011;47126;47.508;8.590;2023-11-22T09:05:28;2.88;;;1.90;;
61250;SDS011;47126;47.508;8.590;2023-11-22T09:07:54;3.53;;;2.03;;
61250;SDS011;47126;47.508;8.590;2023-11-22T09:10:21;2.80;;;1.77;;
61250;SDS011;47126;47.508;8.590;2023-11-22T09:12:47;2.78;;;1.70;;
61250;SDS011;47126;47.508;8.590;2023-11-22T09:15:14;3.30;;;1.83;;
61250;SDS011;47126;47.508;8.590;2023-11-22T09:17:43;3.17;;;2.00;;
61250;SDS011;47126;47.508;8.590;2023-11-22T09:20:12;2.67;;;1.75;;
61250;SDS011;47126;47.508;8.590;2023-11-22T09:22:45;3.05;;;2.00;;
61250;SDS011;47126;47.508;8.590;2023-11-22T09:25:19;3.88;;;2.05;;
61250;SDS011;47126;47.508;8.590;2023-11-22T09:27:45;4.53;;;2.28;;
61250;SDS011;47126;47.508;8.590;2023-11-22T09:30:12;4.82;;;2.17;;
61250;SDS011;47126;47.508;8.590;2023-11-22T09:32:47;3.85;;;2.08;;
61250;SDS011;47126;47.508;8.590;2023-11-22T09:35:14;4.70;;;1.98;;
61250;SDS011;47126;47.508;8.590;2023-11-22T09:37:40;2.83;;;1.75;;
61250;SDS011;47126;47.508;8.590;2023-11-22T09:40:08;2.97;;;1.58;;
61250;SDS011;47126;47.508;8.590;2023-11-22T09:42:34;2.90;;;1.63;;
61250;SDS011;47126;47.508;8.590;2023-11-22T09:45:01;4.05;;;2.00;;
61250;SDS011;47126;47.508;8.590;2023-11-22T09:47:28;2.72;;;1.75;;
61250;SDS011;47126;47.508;8.590;2023-11-22T09:49:56;3.22;;;1.85;;
61250;SDS011;47126;47.508;8.590;2023-11-22T09:52:23;4.47;;;2.10;;
61250;SDS011;47126;47.508;8.590;2023-11-22T09:54:50;3.92;;;2.10;;
61250;SDS011;47126;47.508;8.590;2023-11-22T09:57:17;3.17;;;2.00;;
61250;SDS011;47126;47.508;8.590;2023-11-22T09:59:45;3.70;;;2.28;;
61250;SDS011;47126;47.508;8.590;2023-11-22T10:02:17;4.43;;;2.05;;
61250;SDS011;47126;47.508;8.590;2023-11-22T10:04:43;2.67;;;1.85;;
61250;SDS011;47126;47.508;8.590;2023-11-22T10:07:10;4.22;;;2.15;;
61250;SDS011;47126;47.508;8.590;2023-11-22T10:09:36;3.08;;;1.90;;
61250;SDS011;47126;47.508;8.590;2023-11-22T10:12:03;3.53;;;2.00;;
61250;SDS011;47126;47.508;8.590;2023-11-22T10:14:29;3.50;;;1.85;;
61250;SDS011;47126;47.508;8.590;2023-11-22T10:16:59;2.92;;;1.85;;
61250;SDS011;47126;47.508;8.590;2023-11-22T10:19:25;3.75;;;2.00;;
61250;SDS011;47126;47.508;8.590;2023-11-22T10:22:02;3.92;;;2.10;;
61250;SDS011;47126;47.508;8.590;2023-11-22T10:24:30;2.85;;;1.83;;
61250;SDS011;47126;47.508;8.590;2023-11-22T10:26:58;2.92;;;1.80;;
61250;SDS011;47126;47.508;8.590;2023-11-22T10:29:27;4.43;;;2.30;;
61250;SDS011;47126;47.508;8.590;2023-11-22T10:31:54;4.43;;;1.70;;
61250;SDS011;47126;47.508;8.590;2023-11-22T10:34:21;3.72;;;2.20;;
61250;SDS011;47126;47.508;8.590;2023-11-22T10:36:47;6.30;;;2.97;;
61250;SDS011;47126;47.508;8.590;2023-11-22T10:39:18;3.65;;;1.83;;
61250;SDS011;47126;47.508;8.590;2023-11-22T10:41:45;6.18;;;2.83;;
61250;SDS011;47126;47.508;8.590;2023-11-22T10:44:11;3.38;;;2.00;;
61250;SDS011;47126;47.508;8.590;2023-11-22T10:46:38;3.58;;;1.90;;
61250;SDS011;47126;47.508;8.590;2023-11-22T10:49:07;3.45;;;2.13;;
61250;SDS011;47126;47.508;8.590;2023-11-22T10:51:33;3.92;;;2.05;;
61250;SDS011;47126;47.508;8.590;2023-11-22T10:54:00;4.53;;;1.80;;
61250;SDS011;47126;47.508;8.590;2023-11-22T10:56:28;4.30;;;2.40;;
61250;SDS011;47126;47.508;8.590;2023-11-22T10:58:56;3.95;;;2.10;;
61250;SDS011;47126;47.508;8.590;2023-11-22T11:01:26;5.35;;;2.22;;
61250;SDS011;47126;47.508;8.590;2023-11-22T11:06:24;4.57;;;2.15;;
61250;SDS011;47126;47.508;8.590;2023-11-22T11:08:56;3.85;;;2.13;;
61250;SDS011;47126;47.508;8.590;2023-11-22T11:11:25;6.43;;;2.20;;
61250;SDS011;47126;47.508;8.590;2023-11-22T11:13:51;4.40;;;2.40;;
61250;SDS011;47126;47.508;8.590;2023-11-22T11:16:17;4.25;;;2.35;;
61250;SDS011;47126;47.508;8.590;2023-11-22T11:18:43;4.72;;;2.40;;
61250;SDS011;47126;47.508;8.590;2023-11-22T11:21:10;4.72;;;2.97;;
61250;SDS011;47126;47.508;8.590;2023-11-22T11:23:38;5.07;;;2.63;;
61250;SDS011;47126;47.508;8.590;2023-11-22T11:26:09;3.92;;;2.50;;
61250;SDS011;47126;47.508;8.590;2023-11-22T11:28:44;3.95;;;2.53;;
61250;SDS011;47126;47.508;8.590;2023-11-22T11:31:11;5.93;;;3.33;;
61250;SDS011;47126;47.508;8.590;2023-11-22T11:33:55;6.53;;;2.60;;
61250;SDS011;47126;47.508;8.590;2023-11-22T11:36:23;5.03;;;2.75;;
61250;SDS011;47126;47.508;8.590;2023-11-22T11:38:52;6.47;;;3.33;;
61250;SDS011;47126;47.508;8.590;2023-11-22T11:41:23;4.75;;;2.60;;
61250;SDS011;47126;47.508;8.590;2023-11-22T11:43:50;5.43;;;2.92;;
61250;SDS011;47126;47.508;8.590;2023-11-22T11:46:16;4.88;;;3.10;;
61250;SDS011;47126;47.508;8.590;2023-11-22T11:48:43;4.95;;;2.78;;
61250;SDS011;47126;47.508;8.590;2023-11-22T11:51:15;6.22;;;2.97;;
61250;SDS011;47126;47.508;8.590;2023-11-22T11:53:41;5.32;;;2.88;;
61250;SDS011;47126;47.508;8.590;2023-11-22T11:56:08;5.82;;;3.03;;
61250;SDS011;47126;47.508;8.590;2023-11-22T11:58:34;5.47;;;3.08;;
61250;SDS011;47126;47.508;8.590;2023-11-22T12:01:00;4.65;;;2.38;;
61250;SDS011;47126;47.508;8.590;2023-11-22T12:03:27;5.05;;;2.50;;
61250;SDS011;47126;47.508;8.590;2023-11-22T12:05:57;6.10;;;2.70;;
61250;SDS011;47126;47.508;8.590;2023-11-22T12:08:24;5.97;;;2.53;;
61250;SDS011;47126;47.508;8.590;2023-11-22T12:10:55;5.70;;;2.57;;
61250;SDS011;47126;47.508;8.590;2023-11-22T12:13:23;5.07;;;2.63;;
61250;SDS011;47126;47.508;8.590;2023-11-22T12:15:54;4.45;;;2.35;;
61250;SDS011;47126;47.508;8.590;2023-11-22T12:18:20;4.13;;;2.10;;
61250;SDS011;47126;47.508;8.590;2023-11-22T12:20:56;9.77;;;2.70;;
61250;SDS011;47126;47.508;8.590;2023-11-22T12:23:26;5.57;;;2.88;;
61250;SDS011;47126;47.508;8.590;2023-11-22T12:25:53;3.60;;;2.65;;
61250;SDS011;47126;47.508;8.590;2023-11-22T12:28:21;6.15;;;3.00;;
61250;SDS011;47126;47.508;8.590;2023-11-22T12:30:47;5.18;;;2.60;;
61250;SDS011;47126;47.508;8.590;2023-11-22T12:33:15;5.85;;;2.65;;
61250;SDS011;47126;47.508;8.590;2023-11-22T12:35:43;4.70;;;2.65;;
61250;SDS011;47126;47.508;8.590;2023-11-22T12:38:12;7.20;;;2.83;;
61250;SDS011;47126;47.508;8.590;2023-11-22T12:40:38;5.95;;;2.60;;
61250;SDS011;47126;47.508;8.590;2023-11-22T12:43:08;5.68;;;2.70;;
61250;SDS011;47126;47.508;8.590;2023-11-22T12:45:34;6.93;;;2.75;;
61250;SDS011;47126;47.508;8.590;2023-11-22T12:48:19;5.20;;;2.40;;
61250;SDS011;47126;47.508;8.590;2023-11-22T12:50:46;4.50;;;2.72;;
61250;SDS011;47126;47.508;8.590;2023-11-22T12:53:12;5.65;;;2.75;;
61250;SDS011;47126;47.508;8.590;2023-11-22T12:55:42;4.28;;;2.60;;
61250;SDS011;47126;47.508;8.590;2023-11-22T12:58:17;4.45;;;2.65;;
61250;SDS011;47126;47.508;8.590;2023-11-22T13:00:47;9.63;;;2.40;;
61250;SDS011;47126;47.508;8.590;2023-11-22T13:03:13;4.03;;;2.40;;
61250;SDS011;47126;47.508;8.590;2023-11-22T13:05:40;7.25;;;3.30;;
61250;SDS011;47126;47.508;8.590;2023-11-22T13:08:07;5.53;;;2.63;;
61250;SDS011;47126;47.508;8.590;2023-11-22T13:10:37;4.82;;;2.70;;
61250;SDS011;47126;47.508;8.590;2023-11-22T13:13:03;6.25;;;3.08;;
61250;SDS011;47126;47.508;8.590;2023-11-22T13:15:29;4.45;;;2.50;;
61250;SDS011;47126;47.508;8.590;2023-11-22T13:17:55;4.47;;;2.42;;
61250;SDS011;47126;47.508;8.590;2023-11-22T13:20:22;4.72;;;2.88;;
61250;SDS011;47126;47.508;8.590;2023-11-22T13:22:48;4.50;;;2.83;;
61250;SDS011;47126;47.508;8.590;2023-11-22T13:25:15;6.88;;;2.92;;
61250;SDS011;47126;47.508;8.590;2023-11-22T13:27:47;7.93;;;2.97;;
61250;SDS011;47126;47.508;8.590;2023-11-22T13:30:17;5.57;;;3.00;;
61250;SDS011;47126;47.508;8.590;2023-11-22T13:32:50;6.22;;;3.28;;
61250;SDS011;47126;47.508;8.590;2023-11-22T13:35:27;5.82;;;3.33;;
61250;SDS011;47126;47.508;8.590;2023-11-22T13:37:56;5.47;;;3.20;;
61250;SDS011;47126;47.508;8.590;2023-11-22T13:40:22;7.80;;;3.80;;
61250;SDS011;47126;47.508;8.590;2023-11-22T13:42:56;8.43;;;4.10;;
61250;SDS011;47126;47.508;8.590;2023-11-22T13:45:30;6.80;;;3.65;;
61250;SDS011;47126;47.508;8.590;2023-11-22T13:47:58;6.55;;;3.85;;
61250;SDS011;47126;47.508;8.590;2023-11-22T13:50:31;7.38;;;4.20;;
61250;SDS011;47126;47.508;8.590;2023-11-22T13:52:58;6.20;;;3.70;;
61250;SDS011;47126;47.508;8.590;2023-11-22T13:55:24;7.60;;;4.10;;
61250;SDS011;47126;47.508;8.590;2023-11-22T13:57:55;7.70;;;4.32;;
61250;SDS011;47126;47.508;8.590;2023-11-22T14:00:22;7.75;;;4.53;;
61250;SDS011;47126;47.508;8.590;2023-11-22T14:02:58;7.07;;;4.45;;
61250;SDS011;47126;47.508;8.590;2023-11-22T14:05:30;7.40;;;4.10;;
61250;SDS011;47126;47.508;8.590;2023-11-22T14:07:57;6.88;;;4.13;;
61250;SDS011;47126;47.508;8.590;2023-11-22T14:10:23;7.63;;;3.97;;
61250;SDS011;47126;47.508;8.590;2023-11-22T14:12:49;7.90;;;4.15;;
61250;SDS011;47126;47.508;8.590;2023-11-22T14:15:16;8.55;;;4.30;;
61250;SDS011;47126;47.508;8.590;2023-11-22T14:17:42;7.85;;;4.55;;
61250;SDS011;47126;47.508;8.590;2023-11-22T14:20:12;7.72;;;4.10;;
61250;SDS011;47126;47.508;8.590;2023-11-22T14:22:39;7.53;;;4.20;;
61250;SDS011;47126;47.508;8.590;2023-11-22T14:25:06;6.75;;;4.03;;
61250;SDS011;47126;47.508;8.590;2023-11-22T14:27:36;5.77;;;3.47;;
61250;SDS011;47126;47.508;8.590;2023-11-22T14:30:02;6.93;;;3.38;;
61250;SDS011;47126;47.508;8.590;2023-11-22T14:32:32;7.15;;;3.00;;
61250;SDS011;47126;47.508;8.590;2023-11-22T14:34:59;5.25;;;2.70;;
61250;SDS011;47126;47.508;8.590;2023-11-22T14:37:26;6.88;;;3.22;;
61250;SDS011;47126;47.508;8.590;2023-11-22T14:39:55;5.63;;;2.70;;
61250;SDS011;47126;47.508;8.590;2023-11-22T14:42:21;6.20;;;2.85;;
61250;SDS011;47126;47.508;8.590;2023-11-22T14:44:50;6.45;;;3.38;;
61250;SDS011;47126;47.508;8.590;2023-11-22T14:47:17;5.25;;;2.70;;
61250;SDS011;47126;47.508;8.590;2023-11-22T14:49:55;6.45;;;3.17;;